< < Back
Terminal Aerodrome Forecast


Current Version              Previous Versions:   1  2  3  4  5  6  7  8  9  

Terminal Aerodrome Forecast

534
FTUS42 KCHS 282343
TAFSAV
TAF
KSAV 282343Z 2900/2924 17008KT P6SM SKC
     FM290300 21004KT P6SM SKC
     FM291300 22008KT P6SM SKC
     FM292000 21010KT P6SM FEW060=

Latest METAR

411
SAUS80 KWBC 292300
MTRSAV
METAR KSAV 292253Z 24006KT 10SM FEW075 36/18 A2993 RMK AO2 SLP134
T03610183


USA.gov is the U.S. government's official web portal to all federal, state and local government web resources and services.